createdAt,value
2022-09-28T00:00:58.358Z,12.60
2022-09-28T00:03:28.073Z,12.58
2022-09-28T00:06:02.637Z,13.17
2022-09-28T00:08:30.787Z,13.32
2022-09-28T00:10:58.996Z,13.31
2022-09-28T00:13:26.695Z,13.00
2022-09-28T00:16:02.592Z,13.32
2022-09-28T00:18:32.243Z,13.07
2022-09-28T00:21:04.741Z,13.65
2022-09-28T00:23:33.109Z,13.33
2022-09-28T00:26:03.880Z,13.24
2022-09-28T00:28:32.103Z,13.34
2022-09-28T00:31:00.332Z,13.50
2022-09-28T00:33:28.095Z,13.47
2022-09-28T00:35:58.769Z,13.70
2022-09-28T00:38:31.051Z,13.45
2022-09-28T00:40:59.670Z,13.15
2022-09-28T00:43:28.039Z,12.91
2022-09-28T00:46:00.144Z,13.12
2022-09-28T00:48:30.460Z,12.69
2022-09-28T00:51:04.937Z,13.22
2022-09-28T00:53:36.486Z,12.89
2022-09-28T00:56:09.212Z,12.71
2022-09-28T00:58:42.465Z,12.70
2022-09-28T01:01:10.337Z,12.68
2022-09-28T01:03:38.684Z,12.86
2022-09-28T01:06:09.254Z,12.94
2022-09-28T01:08:38.008Z,12.59
2022-09-28T01:11:05.963Z,12.94
2022-09-28T01:13:34.368Z,12.81
2022-09-28T01:16:10.776Z,12.61
2022-09-28T01:18:48.666Z,12.76
2022-09-28T01:21:20.048Z,12.71
2022-09-28T01:24:14.981Z,12.75
2022-09-28T01:26:50.282Z,12.42
2022-09-28T01:29:23.206Z,12.81
2022-09-28T01:31:57.685Z,12.67
2022-09-28T01:34:32.167Z,13.02
2022-09-28T01:37:04.274Z,12.38
2022-09-28T01:39:36.183Z,12.40
2022-09-28T01:42:13.009Z,12.65
2022-09-28T01:44:46.356Z,12.81
2022-09-28T01:47:18.834Z,12.56
2022-09-28T01:49:50.774Z,12.49
2022-09-28T01:52:24.122Z,12.60
2022-09-28T01:54:58.137Z,12.86
2022-09-28T01:57:33.555Z,12.71
2022-09-28T02:00:06.104Z,13.12
2022-09-28T02:02:39.656Z,12.95
2022-09-28T02:05:12.946Z,12.80
2022-09-28T02:07:45.797Z,13.23
2022-09-28T02:10:17.785Z,12.49
2022-09-28T02:12:52.379Z,12.69
2022-09-28T02:15:24.255Z,12.71
2022-09-28T02:17:52.539Z,12.55
2022-09-28T02:20:22.767Z,12.91
2022-09-28T02:22:52.810Z,12.54
2022-09-28T02:25:29.418Z,12.54
2022-09-28T02:28:01.959Z,12.59
2022-09-28T02:30:31.569Z,12.67
2022-09-28T02:33:06.362Z,12.72
2022-09-28T02:35:35.339Z,12.89
2022-09-28T02:38:03.282Z,12.76
2022-09-28T02:40:33.388Z,12.96
2022-09-28T02:43:11.352Z,12.91
2022-09-28T02:45:50.712Z,12.56
2022-09-28T02:48:43.696Z,12.61
2022-09-28T02:51:21.956Z,12.62
2022-09-28T02:54:22.571Z,12.67
2022-09-28T02:57:11.392Z,12.55
2022-09-28T02:59:50.827Z,12.94
2022-09-28T03:02:29.301Z,12.93
2022-09-28T03:05:07.748Z,12.90
2022-09-28T03:07:38.571Z,12.65
2022-09-28T03:10:14.889Z,12.44
2022-09-28T03:12:45.594Z,12.53
2022-09-28T03:15:22.029Z,12.73
2022-09-28T03:17:50.626Z,12.58
2022-09-28T03:20:19.458Z,12.62
2022-09-28T03:23:05.958Z,12.50
2022-09-28T03:25:35.489Z,12.32
2022-09-28T03:28:03.280Z,12.61
2022-09-28T03:30:32.390Z,12.44
2022-09-28T03:33:02.420Z,12.71
2022-09-28T03:35:30.169Z,12.84
2022-09-28T03:37:58.194Z,12.86
2022-09-28T03:40:27.134Z,12.17
2022-09-28T03:42:55.075Z,12.48
2022-09-28T03:45:22.821Z,12.38
2022-09-28T03:47:51.918Z,12.78
2022-09-28T03:50:19.650Z,12.62
2022-09-28T03:52:47.337Z,12.86
2022-09-28T03:55:15.329Z,12.65
2022-09-28T03:57:43.025Z,12.61
2022-09-28T04:00:11.848Z,12.32
2022-09-28T04:02:39.994Z,12.57
2022-09-28T04:05:09.944Z,13.05
2022-09-28T04:07:37.678Z,12.81
2022-09-28T04:10:05.870Z,12.85
2022-09-28T04:12:33.576Z,13.10
2022-09-28T04:15:01.284Z,13.14
2022-09-28T04:17:29.041Z,12.73
2022-09-28T04:19:57.736Z,12.92
2022-09-28T04:22:26.868Z,13.26
2022-09-28T04:24:55.008Z,13.03
2022-09-28T04:27:40.010Z,13.38
2022-09-28T04:30:08.972Z,13.33
2022-09-28T04:32:36.719Z,13.22
2022-09-28T04:35:04.753Z,13.00
2022-09-28T04:37:33.838Z,13.35
2022-09-28T04:40:01.890Z,13.48
2022-09-28T04:42:29.683Z,13.58
2022-09-28T04:44:58.792Z,13.61
2022-09-28T04:47:26.506Z,13.44
2022-09-28T04:49:54.601Z,13.23
2022-09-28T04:52:22.392Z,13.23
2022-09-28T04:54:51.503Z,13.66
2022-09-28T04:57:19.392Z,13.08
2022-09-28T04:59:47.084Z,13.26
2022-09-28T05:02:15.167Z,13.61
2022-09-28T05:04:43.069Z,13.08
2022-09-28T05:07:10.869Z,12.87
2022-09-28T05:09:38.774Z,12.98
2022-09-28T05:12:09.521Z,13.40
2022-09-28T05:14:37.212Z,13.16
2022-09-28T05:17:05.407Z,13.52
2022-09-28T05:19:34.886Z,13.06
2022-09-28T05:22:04.703Z,12.82
2022-09-28T05:24:32.474Z,13.47
2022-09-28T05:27:00.229Z,13.68
2022-09-28T05:29:32.155Z,13.73
2022-09-28T05:32:01.589Z,13.23
2022-09-28T05:34:29.522Z,13.20
2022-09-28T05:36:57.237Z,12.93
2022-09-28T05:39:25.038Z,13.38
2022-09-28T05:41:52.755Z,13.73
2022-09-28T05:44:20.439Z,13.93
2022-09-28T05:46:49.524Z,12.94
2022-09-28T05:49:17.269Z,12.77
2022-09-28T05:51:45.050Z,12.67
2022-09-28T05:54:12.806Z,13.05
2022-09-28T05:56:40.568Z,13.47
2022-09-28T05:59:08.268Z,12.91
2022-09-28T06:01:36.045Z,12.77
2022-09-28T06:04:05.125Z,13.00
2022-09-28T06:06:32.832Z,13.07
2022-09-28T06:09:00.604Z,13.55
2022-09-28T06:11:28.314Z,13.03
2022-09-28T06:13:56.379Z,13.44
2022-09-28T06:16:24.194Z,13.30
2022-09-28T06:18:52.094Z,13.08
2022-09-28T06:21:21.302Z,13.18
2022-09-28T06:23:51.213Z,13.43
2022-09-28T06:26:18.963Z,12.92
2022-09-28T06:28:46.689Z,13.06
2022-09-28T06:31:14.725Z,13.02
2022-09-28T06:33:42.707Z,13.26
2022-09-28T06:36:10.811Z,13.17
2022-09-28T06:38:39.882Z,12.94
2022-09-28T06:41:07.655Z,13.16
2022-09-28T06:43:36.731Z,13.42
2022-09-28T06:46:04.557Z,13.40
2022-09-28T06:48:33.501Z,13.02
2022-09-28T06:51:01.765Z,12.87
2022-09-28T06:53:30.391Z,13.27
2022-09-28T06:56:00.571Z,13.84
2022-09-28T06:58:28.283Z,13.60
2022-09-28T07:00:59.535Z,13.55
2022-09-28T07:03:27.585Z,13.73
2022-09-28T07:05:56.598Z,13.53
2022-09-28T07:08:26.251Z,13.81
2022-09-28T07:10:56.262Z,13.75
2022-09-28T07:13:50.273Z,13.84
2022-09-28T07:16:15.824Z,13.94
2022-09-28T07:18:43.597Z,13.57
2022-09-28T07:21:24.151Z,13.62
2022-09-28T07:23:56.300Z,13.66
2022-09-28T07:26:24.859Z,13.40
2022-09-28T07:28:54.260Z,13.25
2022-09-28T07:31:22.263Z,13.41
2022-09-28T07:33:51.613Z,13.77
2022-09-28T07:36:20.884Z,14.37
2022-09-28T07:38:48.927Z,14.18
2022-09-28T07:41:21.615Z,14.04
2022-09-28T07:43:50.124Z,13.78
2022-09-28T07:46:20.645Z,13.99
2022-09-28T07:48:49.566Z,13.85
2022-09-28T07:51:19.765Z,13.90
2022-09-28T07:53:48.039Z,14.52
2022-09-28T07:56:17.425Z,13.54
2022-09-28T07:58:45.146Z,13.85
2022-09-28T08:01:14.916Z,13.84
2022-09-28T08:03:47.869Z,14.18
2022-09-28T08:06:18.016Z,14.10
2022-09-28T08:08:46.117Z,14.32
2022-09-28T08:11:14.538Z,13.91
2022-09-28T08:13:42.622Z,13.77
2022-09-28T08:16:11.845Z,13.74
2022-09-28T08:18:39.674Z,14.15
2022-09-28T08:21:25.988Z,13.79
2022-09-28T08:23:54.023Z,13.53
2022-09-28T08:26:21.796Z,14.00
2022-09-28T08:28:50.105Z,14.15
2022-09-28T08:31:17.890Z,14.08
2022-09-28T08:33:45.735Z,13.93
2022-09-28T08:36:14.914Z,13.69
2022-09-28T08:38:43.530Z,13.36
2022-09-28T08:41:20.095Z,13.30
2022-09-28T08:44:04.841Z,13.38
2022-09-28T08:46:38.488Z,13.44
2022-09-28T08:49:26.394Z,13.46
2022-09-28T08:52:01.648Z,14.14
2022-09-28T08:54:39.734Z,14.59
2022-09-28T08:57:12.455Z,14.40
2022-09-28T08:59:52.311Z,14.43
2022-09-28T09:02:25.479Z,14.60
2022-09-28T09:04:53.954Z,14.53
2022-09-28T09:07:46.528Z,14.75
2022-09-28T09:10:30.837Z,14.36
2022-09-28T09:13:12.543Z,14.41
2022-09-28T09:15:51.536Z,14.58
2022-09-28T09:18:27.765Z,14.50
2022-09-28T09:20:58.527Z,14.55
2022-09-28T09:23:37.525Z,14.20
2022-09-28T09:26:16.558Z,14.91
2022-09-28T09:28:57.352Z,14.74
2022-09-28T09:31:40.673Z,15.07
2022-09-28T09:34:33.518Z,15.56
2022-09-28T09:37:12.390Z,14.82
2022-09-28T09:39:52.342Z,15.99
2022-09-28T09:42:37.257Z,17.30
2022-09-28T09:45:29.050Z,16.89
2022-09-28T09:48:03.265Z,17.31
2022-09-28T09:50:36.401Z,17.21
2022-09-28T09:53:11.104Z,17.14
2022-09-28T09:55:44.915Z,18.26
2022-09-28T09:58:18.106Z,18.87
2022-09-28T10:00:49.067Z,19.15
2022-09-28T10:03:23.234Z,18.22
2022-09-28T10:05:57.665Z,18.03
2022-09-28T10:08:28.146Z,18.02
2022-09-28T10:11:07.646Z,19.21
2022-09-28T10:13:35.491Z,19.33
2022-09-28T10:16:04.024Z,20.70
2022-09-28T10:18:31.705Z,19.80
2022-09-28T10:20:59.415Z,18.95
2022-09-28T10:23:30.460Z,21.03
2022-09-28T10:26:04.950Z,22.63
2022-09-28T10:28:36.871Z,22.36
2022-09-28T10:31:35.420Z,20.19
2022-09-28T10:34:04.493Z,19.89
2022-09-28T10:36:38.320Z,19.46
2022-09-28T10:39:06.638Z,18.41
2022-09-28T10:41:49.579Z,18.09
2022-09-28T10:44:19.545Z,18.26
2022-09-28T10:46:57.764Z,18.64
2022-09-28T10:49:27.116Z,18.94
2022-09-28T10:51:56.287Z,19.77
2022-09-28T10:54:26.222Z,18.41
2022-09-28T10:56:57.118Z,18.67
2022-09-28T10:59:40.787Z,19.28
2022-09-28T11:02:22.076Z,18.85
2022-09-28T11:04:55.300Z,19.36
2022-09-28T11:07:25.810Z,18.29
2022-09-28T11:09:56.166Z,17.19
2022-09-28T11:12:27.999Z,17.73
2022-09-28T11:15:01.974Z,17.16
2022-09-28T11:17:32.595Z,17.55
2022-09-28T11:20:02.753Z,18.03
2022-09-28T11:22:41.780Z,16.75
2022-09-28T11:25:22.320Z,17.20
2022-09-28T11:28:04.917Z,16.63
2022-09-28T11:30:35.839Z,16.79
2022-09-28T11:33:06.248Z,17.24
2022-09-28T11:35:46.938Z,17.01
2022-09-28T11:38:34.038Z,16.62
2022-09-28T11:41:17.118Z,16.92
2022-09-28T11:44:17.257Z,16.99
2022-09-28T11:46:53.449Z,17.23
2022-09-28T11:49:31.756Z,16.41
2022-09-28T11:52:04.309Z,16.65
2022-09-28T11:54:41.395Z,16.56
2022-09-28T11:57:15.730Z,16.55
2022-09-28T11:59:55.401Z,16.20
2022-09-28T12:02:27.481Z,16.03
2022-09-28T12:04:59.292Z,16.56
2022-09-28T12:07:32.073Z,15.96
2022-09-28T12:10:04.526Z,15.81
2022-09-28T12:12:36.785Z,15.71
2022-09-28T12:15:16.247Z,15.47
2022-09-28T12:17:48.229Z,15.04
2022-09-28T12:20:23.712Z,14.64
2022-09-28T12:23:02.373Z,14.42
2022-09-28T12:25:38.713Z,13.96
2022-09-28T12:28:09.541Z,13.80
2022-09-28T12:30:42.502Z,13.15
2022-09-28T12:33:13.838Z,13.13
2022-09-28T12:35:54.721Z,12.98
2022-09-28T12:38:38.421Z,12.70
2022-09-28T12:41:20.998Z,12.94
2022-09-28T12:44:01.784Z,12.99
2022-09-28T12:46:40.111Z,13.25
2022-09-28T12:52:29.854Z,13.09
2022-09-28T12:55:20.079Z,13.06
2022-09-28T12:57:58.266Z,13.07
2022-09-28T13:00:32.192Z,13.23
2022-09-28T13:03:22.546Z,13.09
2022-09-28T13:06:16.424Z,13.04
2022-09-28T13:08:57.628Z,13.07
2022-09-28T13:11:34.097Z,13.22
2022-09-28T13:14:22.726Z,12.99
2022-09-28T13:17:01.409Z,13.10
2022-09-28T13:19:42.209Z,12.94
2022-09-28T13:22:23.915Z,13.22
2022-09-28T13:24:56.188Z,13.35
2022-09-28T13:27:32.951Z,13.54
2022-09-28T13:30:03.821Z,13.47
2022-09-28T13:32:33.562Z,13.51
2022-09-28T13:35:03.338Z,13.31
2022-09-28T13:37:31.128Z,13.20
2022-09-28T13:39:59.830Z,13.30
2022-09-28T13:42:52.974Z,13.32
2022-09-28T13:45:56.613Z,13.55
2022-09-28T13:48:35.692Z,13.55
2022-09-28T13:51:30.496Z,13.50
2022-09-28T13:54:17.274Z,13.51
2022-09-28T13:56:54.949Z,13.66
2022-09-28T13:59:27.010Z,13.31
2022-09-28T14:02:06.560Z,13.45
2022-09-28T14:04:54.951Z,13.56
2022-09-28T14:10:18.694Z,13.86
2022-09-28T14:12:49.599Z,14.10
2022-09-28T14:15:40.249Z,14.09
2022-09-28T14:18:19.139Z,14.35
2022-09-28T14:20:58.736Z,14.81
2022-09-28T14:23:58.926Z,14.54
2022-09-28T14:26:56.612Z,14.11
2022-09-28T14:29:31.398Z,13.94
2022-09-28T14:32:04.657Z,14.00
2022-09-28T14:34:36.710Z,14.05
2022-09-28T14:37:34.686Z,13.77
2022-09-28T14:40:34.443Z,14.10
2022-09-28T14:43:28.574Z,13.72
2022-09-28T14:46:28.446Z,13.81
2022-09-28T14:48:57.265Z,13.68
2022-09-28T14:52:02.571Z,14.18
2022-09-28T14:54:40.923Z,14.04
2022-09-28T14:57:19.213Z,14.09
2022-09-28T14:59:47.752Z,14.13
2022-09-28T15:02:21.644Z,14.18
2022-09-28T15:04:53.332Z,14.06
2022-09-28T15:07:23.800Z,14.40
2022-09-28T15:09:53.581Z,14.48
2022-09-28T15:12:26.966Z,14.05
2022-09-28T15:14:58.316Z,14.39
2022-09-28T15:17:29.426Z,13.84
2022-09-28T15:20:24.360Z,13.79
2022-09-28T15:22:57.054Z,13.65
2022-09-28T15:25:26.880Z,13.98
2022-09-28T15:27:57.629Z,13.83
2022-09-28T15:30:28.859Z,13.73
2022-09-28T15:33:18.223Z,14.17
2022-09-28T15:35:49.772Z,14.18
2022-09-28T15:38:18.736Z,13.89
2022-09-28T15:40:47.731Z,14.12
2022-09-28T15:43:27.139Z,14.00
2022-09-28T15:46:07.192Z,14.25
2022-09-28T15:48:40.958Z,15.25
2022-09-28T15:51:11.842Z,15.81
2022-09-28T15:53:48.262Z,17.07
2022-09-28T15:56:16.153Z,16.36
2022-09-28T15:58:47.006Z,15.89
2022-09-28T16:01:36.078Z,16.34
2022-09-28T16:04:39.171Z,16.03
2022-09-28T16:07:20.322Z,16.35
2022-09-28T16:10:02.910Z,16.05
2022-09-28T16:12:43.288Z,17.08
2022-09-28T16:15:20.325Z,17.41
2022-09-28T16:17:53.469Z,16.76
2022-09-28T16:20:29.400Z,17.16
2022-09-28T16:22:59.586Z,16.99
2022-09-28T16:25:28.331Z,15.98
2022-09-28T16:27:56.829Z,16.33
2022-09-28T16:30:28.814Z,15.91
2022-09-28T16:32:58.057Z,15.83
2022-09-28T16:35:28.386Z,15.59
2022-09-28T16:38:02.389Z,15.62
2022-09-28T16:40:31.740Z,15.07
2022-09-28T16:43:02.903Z,14.86
2022-09-28T16:45:32.955Z,14.87
2022-09-28T16:48:01.662Z,14.69
2022-09-28T16:50:29.694Z,14.58
2022-09-28T16:53:19.201Z,14.48
2022-09-28T16:55:48.929Z,14.50
2022-09-28T16:58:16.676Z,14.37
2022-09-28T17:00:45.782Z,14.36
2022-09-28T17:03:19.316Z,14.22
2022-09-28T17:05:49.070Z,14.35
2022-09-28T17:08:19.600Z,14.28
2022-09-28T17:11:14.038Z,14.18
2022-09-28T17:13:41.475Z,13.98
2022-09-28T17:16:15.077Z,14.10
2022-09-28T17:18:43.027Z,14.21
2022-09-28T17:21:15.854Z,14.19
2022-09-28T17:23:44.008Z,13.89
2022-09-28T17:26:19.399Z,13.94
2022-09-28T17:28:47.444Z,13.74
2022-09-28T17:31:17.556Z,13.79
2022-09-28T17:33:45.357Z,14.04
2022-09-28T17:36:16.038Z,13.91
2022-09-28T17:38:44.464Z,14.15
2022-09-28T17:41:16.793Z,14.03
2022-09-28T17:43:47.400Z,14.02
2022-09-28T17:46:27.160Z,13.89
2022-09-28T17:48:57.679Z,14.10
2022-09-28T17:51:25.362Z,13.89
2022-09-28T17:53:53.306Z,13.89
2022-09-28T17:56:21.303Z,13.74
2022-09-28T17:58:49.149Z,13.83
2022-09-28T18:01:17.036Z,13.73
2022-09-28T18:03:46.134Z,13.84
2022-09-28T18:06:15.677Z,13.88
2022-09-28T18:08:44.408Z,13.84
2022-09-28T18:11:12.543Z,13.61
2022-09-28T18:13:40.630Z,13.89
2022-09-28T18:16:09.419Z,13.51
2022-09-28T18:18:39.745Z,13.35
2022-09-28T18:21:09.083Z,13.60
2022-09-28T18:23:37.308Z,13.68
2022-09-28T18:26:05.549Z,13.84
2022-09-28T18:28:33.233Z,13.58
2022-09-28T18:31:00.974Z,13.63
2022-09-28T18:33:28.694Z,13.64
2022-09-28T18:35:56.466Z,13.66
2022-09-28T18:38:25.568Z,13.87
2022-09-28T18:40:54.522Z,13.58
2022-09-28T18:43:22.278Z,13.37
2022-09-28T18:45:50.006Z,13.43
2022-09-28T18:48:17.812Z,13.23
2022-09-28T18:50:45.553Z,13.48
2022-09-28T18:53:13.309Z,13.24
2022-09-28T18:55:44.690Z,13.60
2022-09-28T18:58:12.986Z,13.65
2022-09-28T19:00:42.402Z,13.58
2022-09-28T19:03:14.372Z,13.75
2022-09-28T19:05:43.121Z,13.60
2022-09-28T19:08:11.008Z,13.74
2022-09-28T19:10:38.710Z,13.54
2022-09-28T19:13:07.811Z,13.66
2022-09-28T19:15:35.657Z,13.67
2022-09-28T19:18:03.926Z,13.64
2022-09-28T19:20:33.743Z,13.51
2022-09-28T19:23:02.050Z,13.48
2022-09-28T19:25:29.914Z,13.39
2022-09-28T19:27:57.697Z,13.43
2022-09-28T19:30:26.760Z,13.44
2022-09-28T19:32:54.464Z,13.56
2022-09-28T19:35:22.180Z,13.61
2022-09-28T19:37:51.397Z,13.61
2022-09-28T19:40:19.194Z,13.41
2022-09-28T19:42:46.998Z,13.65
2022-09-28T19:45:14.713Z,13.47
2022-09-28T19:47:44.005Z,13.50
2022-09-28T19:50:11.713Z,13.36
2022-09-28T19:52:39.396Z,13.21
2022-09-28T19:55:08.208Z,12.98
2022-09-28T19:57:36.001Z,12.97
2022-09-28T20:00:04.183Z,13.10
2022-09-28T20:02:32.115Z,13.27
2022-09-28T20:05:01.390Z,13.37
2022-09-28T20:07:33.071Z,13.33
2022-09-28T20:10:00.921Z,13.21
2022-09-28T20:12:28.717Z,13.11
2022-09-28T20:14:56.431Z,13.25
2022-09-28T20:17:24.213Z,13.10
2022-09-28T20:19:52.247Z,13.11
2022-09-28T20:22:21.410Z,13.42
2022-09-28T20:24:49.103Z,13.01
2022-09-28T20:27:16.840Z,13.16
2022-09-28T20:29:44.510Z,13.07
2022-09-28T20:32:12.563Z,13.11
2022-09-28T20:34:40.264Z,13.17
2022-09-28T20:37:07.970Z,13.28
2022-09-28T20:39:40.347Z,13.24
2022-09-28T20:42:10.549Z,13.16
2022-09-28T20:44:38.282Z,12.89
2022-09-28T20:47:06.109Z,12.90
2022-09-28T20:49:33.793Z,13.23
2022-09-28T20:52:01.688Z,13.05
2022-09-28T20:54:29.390Z,13.02
2022-09-28T20:56:58.475Z,13.25
2022-09-28T20:59:27.685Z,12.95
2022-09-28T21:01:55.419Z,13.08
2022-09-28T21:04:23.168Z,13.05
2022-09-28T21:06:50.893Z,12.72
2022-09-28T21:09:18.591Z,13.08
2022-09-28T21:11:46.764Z,12.59
2022-09-28T21:14:15.878Z,12.90
2022-09-28T21:16:43.617Z,12.87
2022-09-28T21:19:11.397Z,12.77
2022-09-28T21:21:39.476Z,12.71
2022-09-28T21:24:07.809Z,12.93
2022-09-28T21:26:35.575Z,13.00
2022-09-28T21:29:04.787Z,13.16
2022-09-28T21:31:39.106Z,13.00
2022-09-28T21:34:07.169Z,13.02
2022-09-28T21:36:34.938Z,12.77
2022-09-28T21:39:05.017Z,12.93
2022-09-28T21:41:36.036Z,12.84
2022-09-28T21:44:03.901Z,12.66
2022-09-28T21:46:34.720Z,12.91
2022-09-28T21:49:02.975Z,12.80
2022-09-28T21:51:31.385Z,12.41
2022-09-28T21:53:59.259Z,12.22
2022-09-28T21:56:27.747Z,12.65
2022-09-28T21:58:55.474Z,12.77
2022-09-28T22:01:25.538Z,12.21
2022-09-28T22:03:57.249Z,12.37
2022-09-28T22:06:28.187Z,12.47
2022-09-28T22:08:56.479Z,12.31
2022-09-28T22:11:26.093Z,12.47
2022-09-28T22:13:56.418Z,12.33
2022-09-28T22:16:26.279Z,12.47
2022-09-28T22:18:58.601Z,12.43
2022-09-28T22:21:28.281Z,12.38
2022-09-28T22:24:00.838Z,12.43
2022-09-28T22:26:29.400Z,12.08
2022-09-28T22:28:58.729Z,12.13
2022-09-28T22:31:29.557Z,12.04
2022-09-28T22:33:59.106Z,12.28
2022-09-28T22:36:27.152Z,12.37
2022-09-28T22:38:56.051Z,12.08
2022-09-28T22:41:24.927Z,11.94
2022-09-28T22:43:54.569Z,11.98
2022-09-28T22:46:23.977Z,12.02
2022-09-28T22:48:53.246Z,12.02
2022-09-28T22:51:23.402Z,11.83
2022-09-28T22:53:51.197Z,11.99
2022-09-28T22:56:19.421Z,11.91
2022-09-28T22:58:47.876Z,11.55
2022-09-28T23:01:18.530Z,11.43
2022-09-28T23:03:46.680Z,11.55
2022-09-28T23:06:16.570Z,11.68
2022-09-28T23:08:47.293Z,11.71
2022-09-28T23:11:15.769Z,11.52
2022-09-28T23:13:43.513Z,11.64
2022-09-28T23:16:14.831Z,11.56
2022-09-28T23:18:42.898Z,11.46
2022-09-28T23:21:15.205Z,11.58
2022-09-28T23:23:43.327Z,11.80
2022-09-28T23:26:15.957Z,11.82
2022-09-28T23:28:43.884Z,11.60
2022-09-28T23:31:13.730Z,11.50
2022-09-28T23:33:41.818Z,11.68
2022-09-28T23:36:10.460Z,11.50
2022-09-28T23:38:38.479Z,11.70
2022-09-28T23:41:06.299Z,11.58
2022-09-28T23:43:36.152Z,11.44
2022-09-28T23:46:04.352Z,11.27
2022-09-28T23:48:32.484Z,11.42
2022-09-28T23:51:00.612Z,11.61
2022-09-28T23:53:29.258Z,11.76
2022-09-28T23:55:56.973Z,11.56
2022-09-28T23:58:25.724Z,11.73
